sensor_id;sensor_type;location;lat;lon;timestamp;temperature;humidity
53876;DHT22;39789;53.216;5.624;2022-09-17T00:02:05;12.10;99.90
53876;DHT22;39789;53.216;5.624;2022-09-17T00:04:31;12.10;99.90
53876;DHT22;39789;53.216;5.624;2022-09-17T00:06:57;12.20;99.90
53876;DHT22;39789;53.216;5.624;2022-09-17T00:09:22;12.30;99.90
53876;DHT22;39789;53.216;5.624;2022-09-17T00:11:48;12.30;99.90
53876;DHT22;39789;53.216;5.624;2022-09-17T00:14:16;12.20;99.90
53876;DHT22;39789;53.216;5.624;2022-09-17T00:16:46;12.10;99.90
53876;DHT22;39789;53.216;5.624;2022-09-17T00:19:21;12.00;99.90
53876;DHT22;39789;53.216;5.624;2022-09-17T00:21:50;12.00;99.90
53876;DHT22;39789;53.216;5.624;2022-09-17T00:24:16;12.00;99.90
53876;DHT22;39789;53.216;5.624;2022-09-17T00:26:42;12.00;99.90
53876;DHT22;39789;53.216;5.624;2022-09-17T00:29:09;12.00;99.90
53876;DHT22;39789;53.216;5.624;2022-09-17T00:31:35;12.00;99.90
53876;DHT22;39789;53.216;5.624;2022-09-17T00:34:02;12.00;99.90
53876;DHT22;39789;53.216;5.624;2022-09-17T00:36:28;11.90;99.90
53876;DHT22;39789;53.216;5.624;2022-09-17T00:38:56;11.80;99.90
53876;DHT22;39789;53.216;5.624;2022-09-17T00:41:25;11.60;99.90
53876;DHT22;39789;53.216;5.624;2022-09-17T00:43:56;11.50;99.90
53876;DHT22;39789;53.216;5.624;2022-09-17T00:48:56;11.40;99.90
53876;DHT22;39789;53.216;5.624;2022-09-17T00:51:28;11.40;99.90
53876;DHT22;39789;53.216;5.624;2022-09-17T00:53:55;11.40;99.90
53876;DHT22;39789;53.216;5.624;2022-09-17T00:56:24;11.40;99.90
53876;DHT22;39789;53.216;5.624;2022-09-17T00:58:51;11.40;99.90
53876;DHT22;39789;53.216;5.624;2022-09-17T01:01:17;11.40;99.90
53876;DHT22;39789;53.216;5.624;2022-09-17T01:03:43;11.50;99.90
53876;DHT22;39789;53.216;5.624;2022-09-17T01:09:14;11.70;99.90
53876;DHT22;39789;53.216;5.624;2022-09-17T01:20:21;11.90;99.90
53876;DHT22;39789;53.216;5.624;2022-09-17T01:28:56;11.90;99.90
53876;DHT22;39789;53.216;5.624;2022-09-17T01:31:38;11.90;99.90
53876;DHT22;39789;53.216;5.624;2022-09-17T01:37:35;11.60;99.90
53876;DHT22;39789;53.216;5.624;2022-09-17T01:40:07;11.60;99.90
53876;DHT22;39789;53.216;5.624;2022-09-17T01:42:57;11.60;99.90
53876;DHT22;39789;53.216;5.624;2022-09-17T01:45:40;11.60;99.90
53876;DHT22;39789;53.216;5.624;2022-09-17T01:48:15;11.50;99.90
53876;DHT22;39789;53.216;5.624;2022-09-17T01:50:57;11.40;99.90
53876;DHT22;39789;53.216;5.624;2022-09-17T01:53:28;11.40;99.90
53876;DHT22;39789;53.216;5.624;2022-09-17T01:55:57;11.30;99.90
53876;DHT22;39789;53.216;5.624;2022-09-17T01:58:30;11.30;99.90
53876;DHT22;39789;53.216;5.624;2022-09-17T02:01:03;11.30;99.90
53876;DHT22;39789;53.216;5.624;2022-09-17T02:03:38;11.40;99.90
53876;DHT22;39789;53.216;5.624;2022-09-17T02:06:16;11.40;99.90
53876;DHT22;39789;53.216;5.624;2022-09-17T02:08:55;11.50;99.90
53876;DHT22;39789;53.216;5.624;2022-09-17T02:11:21;11.60;99.90
53876;DHT22;39789;53.216;5.624;2022-09-17T02:13:57;11.60;99.90
53876;DHT22;39789;53.216;5.624;2022-09-17T02:16:25;11.70;99.90
53876;DHT22;39789;53.216;5.624;2022-09-17T02:19:04;11.70;99.90
53876;DHT22;39789;53.216;5.624;2022-09-17T02:21:50;11.70;99.90
53876;DHT22;39789;53.216;5.624;2022-09-17T02:24:44;11.70;99.90
53876;DHT22;39789;53.216;5.624;2022-09-17T02:29:41;11.70;99.90
53876;DHT22;39789;53.216;5.624;2022-09-17T02:32:08;11.70;99.90
53876;DHT22;39789;53.216;5.624;2022-09-17T02:34:34;11.80;99.90
53876;DHT22;39789;53.216;5.624;2022-09-17T02:37:00;11.90;99.90
53876;DHT22;39789;53.216;5.624;2022-09-17T02:39:27;12.00;99.90
53876;DHT22;39789;53.216;5.624;2022-09-17T02:45:09;11.90;99.90
53876;DHT22;39789;53.216;5.624;2022-09-17T02:51:08;11.60;99.90
53876;DHT22;39789;53.216;5.624;2022-09-17T02:59:36;11.30;99.90
53876;DHT22;39789;53.216;5.624;2022-09-17T03:02:25;11.30;99.90
53876;DHT22;39789;53.216;5.624;2022-09-17T03:04:53;11.30;99.90
53876;DHT22;39789;53.216;5.624;2022-09-17T03:07:21;11.30;99.90
53876;DHT22;39789;53.216;5.624;2022-09-17T03:09:47;11.30;99.90
53876;DHT22;39789;53.216;5.624;2022-09-17T03:12:13;11.40;99.90
53876;DHT22;39789;53.216;5.624;2022-09-17T03:14:39;11.40;99.90
53876;DHT22;39789;53.216;5.624;2022-09-17T03:17:05;11.50;99.90
53876;DHT22;39789;53.216;5.624;2022-09-17T03:19:30;11.50;99.90
53876;DHT22;39789;53.216;5.624;2022-09-17T03:21:56;11.60;99.90
53876;DHT22;39789;53.216;5.624;2022-09-17T03:24:22;11.70;99.90
53876;DHT22;39789;53.216;5.624;2022-09-17T03:26:47;11.60;99.90
53876;DHT22;39789;53.216;5.624;2022-09-17T03:29:14;11.70;99.90
53876;DHT22;39789;53.216;5.624;2022-09-17T03:31:39;11.60;99.90
53876;DHT22;39789;53.216;5.624;2022-09-17T03:34:05;11.60;99.90
53876;DHT22;39789;53.216;5.624;2022-09-17T03:36:31;11.80;99.90
53876;DHT22;39789;53.216;5.624;2022-09-17T03:38:57;12.10;99.90
53876;DHT22;39789;53.216;5.624;2022-09-17T03:41:24;11.80;99.90
53876;DHT22;39789;53.216;5.624;2022-09-17T03:43:50;11.80;99.90
53876;DHT22;39789;53.216;5.624;2022-09-17T03:46:16;11.90;99.90
53876;DHT22;39789;53.216;5.624;2022-09-17T03:48:42;11.90;99.90
53876;DHT22;39789;53.216;5.624;2022-09-17T03:51:08;11.90;99.90
53876;DHT22;39789;53.216;5.624;2022-09-17T03:53:33;11.90;99.90
53876;DHT22;39789;53.216;5.624;2022-09-17T03:56:01;11.90;99.90
53876;DHT22;39789;53.216;5.624;2022-09-17T03:58:28;11.90;99.90
53876;DHT22;39789;53.216;5.624;2022-09-17T04:00:53;11.90;99.90
53876;DHT22;39789;53.216;5.624;2022-09-17T04:03:23;11.60;99.90
53876;DHT22;39789;53.216;5.624;2022-09-17T04:05:48;11.30;99.90
53876;DHT22;39789;53.216;5.624;2022-09-17T04:08:14;11.10;99.90
53876;DHT22;39789;53.216;5.624;2022-09-17T04:10:40;10.90;99.90
53876;DHT22;39789;53.216;5.624;2022-09-17T04:13:05;10.90;99.90
53876;DHT22;39789;53.216;5.624;2022-09-17T04:15:31;10.80;99.90
53876;DHT22;39789;53.216;5.624;2022-09-17T04:17:57;10.80;99.90
53876;DHT22;39789;53.216;5.624;2022-09-17T04:20:23;10.80;99.90
53876;DHT22;39789;53.216;5.624;2022-09-17T04:22:50;10.70;99.90
53876;DHT22;39789;53.216;5.624;2022-09-17T04:25:16;10.70;99.90
53876;DHT22;39789;53.216;5.624;2022-09-17T04:27:42;10.70;99.90
53876;DHT22;39789;53.216;5.624;2022-09-17T04:30:08;10.80;99.90
53876;DHT22;39789;53.216;5.624;2022-09-17T04:32:34;11.00;99.90
53876;DHT22;39789;53.216;5.624;2022-09-17T04:35:00;11.00;99.90
53876;DHT22;39789;53.216;5.624;2022-09-17T04:37:25;11.10;99.90
53876;DHT22;39789;53.216;5.624;2022-09-17T04:39:51;11.20;99.90
53876;DHT22;39789;53.216;5.624;2022-09-17T04:42:17;11.20;99.90
53876;DHT22;39789;53.216;5.624;2022-09-17T04:44:43;11.20;99.90
53876;DHT22;39789;53.216;5.624;2022-09-17T04:50:49;11.30;99.90
53876;DHT22;39789;53.216;5.624;2022-09-17T04:53:16;11.40;99.90
53876;DHT22;39789;53.216;5.624;2022-09-17T04:55:43;11.50;99.90
53876;DHT22;39789;53.216;5.624;2022-09-17T04:58:09;11.50;99.90
53876;DHT22;39789;53.216;5.624;2022-09-17T05:00:35;11.50;99.90
53876;DHT22;39789;53.216;5.624;2022-09-17T05:03:01;11.50;99.90
53876;DHT22;39789;53.216;5.624;2022-09-17T05:05:27;11.40;99.90
53876;DHT22;39789;53.216;5.624;2022-09-17T05:07:53;11.30;99.90
53876;DHT22;39789;53.216;5.624;2022-09-17T05:10:21;11.30;99.90
53876;DHT22;39789;53.216;5.624;2022-09-17T05:12:51;11.30;99.90
53876;DHT22;39789;53.216;5.624;2022-09-17T05:15:17;11.20;99.90
53876;DHT22;39789;53.216;5.624;2022-09-17T05:17:43;11.20;99.90
53876;DHT22;39789;53.216;5.624;2022-09-17T05:20:09;11.10;99.90
53876;DHT22;39789;53.216;5.624;2022-09-17T05:22:42;11.10;99.90
53876;DHT22;39789;53.216;5.624;2022-09-17T05:25:09;11.20;99.90
53876;DHT22;39789;53.216;5.624;2022-09-17T05:27:35;11.20;99.90
53876;DHT22;39789;53.216;5.624;2022-09-17T05:30:00;11.30;99.90
53876;DHT22;39789;53.216;5.624;2022-09-17T05:32:26;11.50;99.90
53876;DHT22;39789;53.216;5.624;2022-09-17T05:34:52;11.30;99.90
53876;DHT22;39789;53.216;5.624;2022-09-17T05:37:17;11.10;99.90
53876;DHT22;39789;53.216;5.624;2022-09-17T05:39:43;10.90;99.90
53876;DHT22;39789;53.216;5.624;2022-09-17T05:42:08;10.80;99.90
53876;DHT22;39789;53.216;5.624;2022-09-17T05:44:34;10.70;99.90
53876;DHT22;39789;53.216;5.624;2022-09-17T05:46:59;10.70;99.90
53876;DHT22;39789;53.216;5.624;2022-09-17T05:49:25;10.70;99.90
53876;DHT22;39789;53.216;5.624;2022-09-17T05:51:51;10.70;99.90
53876;DHT22;39789;53.216;5.624;2022-09-17T05:54:16;10.80;99.90
53876;DHT22;39789;53.216;5.624;2022-09-17T05:56:42;11.00;99.90
53876;DHT22;39789;53.216;5.624;2022-09-17T05:59:08;11.10;99.90
53876;DHT22;39789;53.216;5.624;2022-09-17T06:01:33;11.20;99.90
53876;DHT22;39789;53.216;5.624;2022-09-17T06:03:59;11.30;99.90
53876;DHT22;39789;53.216;5.624;2022-09-17T06:06:27;11.40;99.90
53876;DHT22;39789;53.216;5.624;2022-09-17T06:08:54;11.90;99.90
53876;DHT22;39789;53.216;5.624;2022-09-17T06:11:20;11.50;99.90
53876;DHT22;39789;53.216;5.624;2022-09-17T06:13:45;11.30;99.90
53876;DHT22;39789;53.216;5.624;2022-09-17T06:16:11;11.10;99.90
53876;DHT22;39789;53.216;5.624;2022-09-17T06:18:36;11.10;99.90
53876;DHT22;39789;53.216;5.624;2022-09-17T06:21:03;11.10;99.90
53876;DHT22;39789;53.216;5.624;2022-09-17T06:23:33;11.20;99.90
53876;DHT22;39789;53.216;5.624;2022-09-17T06:26:03;11.30;99.90
53876;DHT22;39789;53.216;5.624;2022-09-17T06:28:29;11.50;99.90
53876;DHT22;39789;53.216;5.624;2022-09-17T06:30:59;11.60;99.90
53876;DHT22;39789;53.216;5.624;2022-09-17T06:33:25;11.40;99.90
53876;DHT22;39789;53.216;5.624;2022-09-17T06:36:03;12.50;99.90
53876;DHT22;39789;53.216;5.624;2022-09-17T06:38:31;10.90;99.90
53876;DHT22;39789;53.216;5.624;2022-09-17T06:40:57;10.70;99.90
53876;DHT22;39789;53.216;5.624;2022-09-17T06:43:24;11.50;99.90
53876;DHT22;39789;53.216;5.624;2022-09-17T06:45:54;10.70;99.90
53876;DHT22;39789;53.216;5.624;2022-09-17T06:48:21;10.70;99.90
53876;DHT22;39789;53.216;5.624;2022-09-17T06:50:48;10.60;99.90
53876;DHT22;39789;53.216;5.624;2022-09-17T06:53:13;10.60;99.90
53876;DHT22;39789;53.216;5.624;2022-09-17T06:55:42;10.50;99.90
53876;DHT22;39789;53.216;5.624;2022-09-17T06:58:10;10.50;99.90
53876;DHT22;39789;53.216;5.624;2022-09-17T07:00:36;10.60;99.90
53876;DHT22;39789;53.216;5.624;2022-09-17T07:03:02;10.70;99.90
53876;DHT22;39789;53.216;5.624;2022-09-17T07:05:28;10.90;99.90
53876;DHT22;39789;53.216;5.624;2022-09-17T07:07:54;10.90;99.90
53876;DHT22;39789;53.216;5.624;2022-09-17T07:10:21;10.90;99.90
53876;DHT22;39789;53.216;5.624;2022-09-17T07:12:51;10.90;99.90
53876;DHT22;39789;53.216;5.624;2022-09-17T07:15:16;10.90;99.90
53876;DHT22;39789;53.216;5.624;2022-09-17T07:17:42;11.80;99.90
53876;DHT22;39789;53.216;5.624;2022-09-17T07:20:09;11.10;99.90
53876;DHT22;39789;53.216;5.624;2022-09-17T07:22:58;11.20;99.90
53876;DHT22;39789;53.216;5.624;2022-09-17T07:25:24;11.50;99.90
53876;DHT22;39789;53.216;5.624;2022-09-17T07:27:51;12.10;99.90
53876;DHT22;39789;53.216;5.624;2022-09-17T07:30:17;12.90;99.90
53876;DHT22;39789;53.216;5.624;2022-09-17T07:32:43;13.70;99.90
53876;DHT22;39789;53.216;5.624;2022-09-17T07:35:09;13.90;99.90
53876;DHT22;39789;53.216;5.624;2022-09-17T07:37:34;13.30;99.90
53876;DHT22;39789;53.216;5.624;2022-09-17T07:40:00;12.50;99.90
53876;DHT22;39789;53.216;5.624;2022-09-17T07:42:26;11.90;99.90
53876;DHT22;39789;53.216;5.624;2022-09-17T07:44:52;11.50;99.90
53876;DHT22;39789;53.216;5.624;2022-09-17T07:47:18;11.30;99.90
53876;DHT22;39789;53.216;5.624;2022-09-17T07:49:44;11.10;99.90
53876;DHT22;39789;53.216;5.624;2022-09-17T07:52:10;11.00;99.90
53876;DHT22;39789;53.216;5.624;2022-09-17T07:54:35;10.90;99.90
53876;DHT22;39789;53.216;5.624;2022-09-17T07:57:02;10.90;99.90
53876;DHT22;39789;53.216;5.624;2022-09-17T07:59:27;12.00;99.90
53876;DHT22;39789;53.216;5.624;2022-09-17T08:01:53;11.00;99.90
53876;DHT22;39789;53.216;5.624;2022-09-17T08:04:19;11.20;99.90
53876;DHT22;39789;53.216;5.624;2022-09-17T08:06:45;11.50;99.90
53876;DHT22;39789;53.216;5.624;2022-09-17T08:09:13;11.90;99.90
53876;DHT22;39789;53.216;5.624;2022-09-17T08:11:40;12.30;99.90
53876;DHT22;39789;53.216;5.624;2022-09-17T08:14:08;12.50;99.90
53876;DHT22;39789;53.216;5.624;2022-09-17T08:16:34;12.30;99.90
53876;DHT22;39789;53.216;5.624;2022-09-17T08:19:00;12.80;99.90
53876;DHT22;39789;53.216;5.624;2022-09-17T08:21:25;11.60;99.90
53876;DHT22;39789;53.216;5.624;2022-09-17T08:23:51;11.50;99.90
53876;DHT22;39789;53.216;5.624;2022-09-17T08:26:19;11.40;99.90
53876;DHT22;39789;53.216;5.624;2022-09-17T08:28:48;11.40;99.90
53876;DHT22;39789;53.216;5.624;2022-09-17T08:31:18;11.40;99.90
53876;DHT22;39789;53.216;5.624;2022-09-17T08:33:44;11.40;99.90
53876;DHT22;39789;53.216;5.624;2022-09-17T08:36:12;11.50;99.90
53876;DHT22;39789;53.216;5.624;2022-09-17T08:38:38;11.80;99.90
53876;DHT22;39789;53.216;5.624;2022-09-17T08:46:33;12.50;99.90
53876;DHT22;39789;53.216;5.624;2022-09-17T08:52:19;12.90;99.90
53876;DHT22;39789;53.216;5.624;2022-09-17T08:57:38;13.40;99.90
53876;DHT22;39789;53.216;5.624;2022-09-17T09:00:10;14.10;99.90
53876;DHT22;39789;53.216;5.624;2022-09-17T09:03:05;13.30;99.90
53876;DHT22;39789;53.216;5.624;2022-09-17T09:05:46;13.30;99.90
53876;DHT22;39789;53.216;5.624;2022-09-17T09:10:57;13.30;99.90
53876;DHT22;39789;53.216;5.624;2022-09-17T09:13:37;13.30;99.90
53876;DHT22;39789;53.216;5.624;2022-09-17T09:33:44;13.50;99.90
53876;DHT22;39789;53.216;5.624;2022-09-17T09:36:14;13.70;99.90
53876;DHT22;39789;53.216;5.624;2022-09-17T09:38:55;13.70;99.90
53876;DHT22;39789;53.216;5.624;2022-09-17T09:41:31;13.50;99.90
53876;DHT22;39789;53.216;5.624;2022-09-17T09:44:14;13.40;99.90
53876;DHT22;39789;53.216;5.624;2022-09-17T09:55:18;13.10;99.90
53876;DHT22;39789;53.216;5.624;2022-09-17T09:57:48;13.00;99.90
53876;DHT22;39789;53.216;5.624;2022-09-17T10:00:23;13.00;99.90
53876;DHT22;39789;53.216;5.624;2022-09-17T10:03:15;13.10;99.90
53876;DHT22;39789;53.216;5.624;2022-09-17T10:05:54;12.60;99.90
53876;DHT22;39789;53.216;5.624;2022-09-17T10:08:20;12.00;99.90
53876;DHT22;39789;53.216;5.624;2022-09-17T10:10:58;11.70;99.90
53876;DHT22;39789;53.216;5.624;2022-09-17T10:13:26;11.50;99.90
53876;DHT22;39789;53.216;5.624;2022-09-17T10:15:52;11.40;99.90
53876;DHT22;39789;53.216;5.624;2022-09-17T10:18:22;11.30;99.90
53876;DHT22;39789;53.216;5.624;2022-09-17T10:20:59;11.30;99.90
53876;DHT22;39789;53.216;5.624;2022-09-17T10:23:30;11.30;99.90
53876;DHT22;39789;53.216;5.624;2022-09-17T10:25:58;11.20;99.90
53876;DHT22;39789;53.216;5.624;2022-09-17T10:28:34;11.10;99.90
53876;DHT22;39789;53.216;5.624;2022-09-17T10:31:06;10.90;99.90
53876;DHT22;39789;53.216;5.624;2022-09-17T10:33:38;10.70;99.90
53876;DHT22;39789;53.216;5.624;2022-09-17T10:36:11;10.60;99.90
53876;DHT22;39789;53.216;5.624;2022-09-17T10:38:45;10.60;99.90
53876;DHT22;39789;53.216;5.624;2022-09-17T10:41:19;10.70;99.90
53876;DHT22;39789;53.216;5.624;2022-09-17T10:43:49;10.80;99.90
53876;DHT22;39789;53.216;5.624;2022-09-17T10:46:26;10.90;99.90
53876;DHT22;39789;53.216;5.624;2022-09-17T10:51:38;11.10;99.90
53876;DHT22;39789;53.216;5.624;2022-09-17T10:56:53;11.80;99.90
53876;DHT22;39789;53.216;5.624;2022-09-17T11:02:15;12.60;99.90
53876;DHT22;39789;53.216;5.624;2022-09-17T11:05:58;12.70;99.90
53876;DHT22;39789;53.216;5.624;2022-09-17T11:08:28;12.60;99.90
53876;DHT22;39789;53.216;5.624;2022-09-17T11:21:59;12.30;99.90
53876;DHT22;39789;53.216;5.624;2022-09-17T11:24:47;12.60;99.90
53876;DHT22;39789;53.216;5.624;2022-09-17T11:27:36;12.90;99.90
53876;DHT22;39789;53.216;5.624;2022-09-17T11:30:23;13.20;99.90
53876;DHT22;39789;53.216;5.624;2022-09-17T11:33:14;13.60;99.90
53876;DHT22;39789;53.216;5.624;2022-09-17T11:35:48;13.70;99.90
53876;DHT22;39789;53.216;5.624;2022-09-17T11:38:29;13.70;99.90
53876;DHT22;39789;53.216;5.624;2022-09-17T11:47:28;14.00;99.90
53876;DHT22;39789;53.216;5.624;2022-09-17T11:52:32;14.20;99.90
53876;DHT22;39789;53.216;5.624;2022-09-17T11:55:21;14.10;99.90
53876;DHT22;39789;53.216;5.624;2022-09-17T11:57:56;14.10;99.90
53876;DHT22;39789;53.216;5.624;2022-09-17T12:00:24;14.10;99.90
53876;DHT22;39789;53.216;5.624;2022-09-17T12:03:12;14.20;99.90
53876;DHT22;39789;53.216;5.624;2022-09-17T12:05:58;14.30;99.90
53876;DHT22;39789;53.216;5.624;2022-09-17T12:15:50;14.70;99.90
53876;DHT22;39789;53.216;5.624;2022-09-17T12:18:30;15.70;99.90
53876;DHT22;39789;53.216;5.624;2022-09-17T12:20:58;14.80;99.90
53876;DHT22;39789;53.216;5.624;2022-09-17T12:23:46;14.70;99.90
53876;DHT22;39789;53.216;5.624;2022-09-17T12:29:05;15.00;99.90
53876;DHT22;39789;53.216;5.624;2022-09-17T12:31:52;15.20;99.90
53876;DHT22;39789;53.216;5.624;2022-09-17T12:34:32;15.10;99.90
53876;DHT22;39789;53.216;5.624;2022-09-17T12:37:34;15.10;99.90
53876;DHT22;39789;53.216;5.624;2022-09-17T12:40:44;15.10;99.90
53876;DHT22;39789;53.216;5.624;2022-09-17T12:49:05;14.70;99.90
53876;DHT22;39789;53.216;5.624;2022-09-17T13:00:13;14.20;99.90
53876;DHT22;39789;53.216;5.624;2022-09-17T13:03:01;13.90;99.90
53876;DHT22;39789;53.216;5.624;2022-09-17T13:11:39;12.50;99.90
53876;DHT22;39789;53.216;5.624;2022-09-17T13:14:23;12.20;99.90
53876;DHT22;39789;53.216;5.624;2022-09-17T13:17:00;12.20;99.90
53876;DHT22;39789;53.216;5.624;2022-09-17T13:19:40;12.20;99.90
53876;DHT22;39789;53.216;5.624;2022-09-17T13:25:49;12.60;99.90
53876;DHT22;39789;53.216;5.624;2022-09-17T13:28:17;13.10;99.90
53876;DHT22;39789;53.216;5.624;2022-09-17T13:31:01;13.00;99.90
53876;DHT22;39789;53.216;5.624;2022-09-17T13:33:57;12.80;99.90
53876;DHT22;39789;53.216;5.624;2022-09-17T13:36:52;12.80;99.90
53876;DHT22;39789;53.216;5.624;2022-09-17T13:39:38;12.90;99.90
53876;DHT22;39789;53.216;5.624;2022-09-17T13:42:12;13.10;99.90
53876;DHT22;39789;53.216;5.624;2022-09-17T13:44:46;13.20;99.90
53876;DHT22;39789;53.216;5.624;2022-09-17T13:47:17;13.50;99.90
53876;DHT22;39789;53.216;5.624;2022-09-17T13:49:47;12.60;99.90
53876;DHT22;39789;53.216;5.624;2022-09-17T13:52:29;12.00;99.90
53876;DHT22;39789;53.216;5.624;2022-09-17T13:54:55;11.80;99.90
53876;DHT22;39789;53.216;5.624;2022-09-17T13:57:21;11.90;99.90
53876;DHT22;39789;53.216;5.624;2022-09-17T13:59:56;12.00;99.90
53876;DHT22;39789;53.216;5.624;2022-09-17T14:02:29;11.90;99.90
53876;DHT22;39789;53.216;5.624;2022-09-17T14:05:00;11.70;99.90
53876;DHT22;39789;53.216;5.624;2022-09-17T14:07:46;11.60;99.90
53876;DHT22;39789;53.216;5.624;2022-09-17T14:18:01;13.10;99.90
53876;DHT22;39789;53.216;5.624;2022-09-17T14:20:33;12.40;99.90
53876;DHT22;39789;53.216;5.624;2022-09-17T14:23:02;12.60;99.90
53876;DHT22;39789;53.216;5.624;2022-09-17T14:25:39;12.70;99.90
53876;DHT22;39789;53.216;5.624;2022-09-17T14:28:29;12.90;99.90
53876;DHT22;39789;53.216;5.624;2022-09-17T14:30:59;13.00;99.90
53876;DHT22;39789;53.216;5.624;2022-09-17T14:33:28;13.20;99.90
53876;DHT22;39789;53.216;5.624;2022-09-17T14:36:19;13.30;99.90
53876;DHT22;39789;53.216;5.624;2022-09-17T14:38:54;13.50;99.90
53876;DHT22;39789;53.216;5.624;2022-09-17T14:41:27;14.20;99.90
53876;DHT22;39789;53.216;5.624;2022-09-17T14:44:01;13.80;99.90
53876;DHT22;39789;53.216;5.624;2022-09-17T14:49:13;14.00;99.90
53876;DHT22;39789;53.216;5.624;2022-09-17T14:51:40;14.10;99.90
53876;DHT22;39789;53.216;5.624;2022-09-17T14:54:10;14.10;99.90
53876;DHT22;39789;53.216;5.624;2022-09-17T14:56:55;13.90;99.90
53876;DHT22;39789;53.216;5.624;2022-09-17T14:59:49;13.70;99.90
53876;DHT22;39789;53.216;5.624;2022-09-17T15:02:39;13.50;99.90
53876;DHT22;39789;53.216;5.624;2022-09-17T15:05:34;13.30;99.90
53876;DHT22;39789;53.216;5.624;2022-09-17T15:08:23;13.30;99.90
53876;DHT22;39789;53.216;5.624;2022-09-17T15:21:41;13.60;99.90
53876;DHT22;39789;53.216;5.624;2022-09-17T15:24:24;13.50;99.90
53876;DHT22;39789;53.216;5.624;2022-09-17T15:34:16;13.50;99.90
53876;DHT22;39789;53.216;5.624;2022-09-17T15:37:02;13.50;99.90
53876;DHT22;39789;53.216;5.624;2022-09-17T15:39:41;13.50;99.90
53876;DHT22;39789;53.216;5.624;2022-09-17T15:45:48;13.60;99.90
53876;DHT22;39789;53.216;5.624;2022-09-17T15:50:57;13.30;99.90
53876;DHT22;39789;53.216;5.624;2022-09-17T15:53:24;13.30;99.90
53876;DHT22;39789;53.216;5.624;2022-09-17T15:56:13;13.30;99.90
53876;DHT22;39789;53.216;5.624;2022-09-17T16:08:51;13.30;99.90
53876;DHT22;39789;53.216;5.624;2022-09-17T16:11:22;13.30;99.90
53876;DHT22;39789;53.216;5.624;2022-09-17T16:13:49;13.40;99.90
53876;DHT22;39789;53.216;5.624;2022-09-17T16:16:17;13.40;99.90
53876;DHT22;39789;53.216;5.624;2022-09-17T16:18:43;13.40;99.90
53876;DHT22;39789;53.216;5.624;2022-09-17T16:21:09;13.40;99.90
53876;DHT22;39789;53.216;5.624;2022-09-17T16:23:35;13.40;99.90
53876;DHT22;39789;53.216;5.624;2022-09-17T16:26:02;13.20;99.90
53876;DHT22;39789;53.216;5.624;2022-09-17T16:28:29;14.10;99.90
53876;DHT22;39789;53.216;5.624;2022-09-17T16:30:55;13.10;99.90
53876;DHT22;39789;53.216;5.624;2022-09-17T16:33:21;13.00;99.90
53876;DHT22;39789;53.216;5.624;2022-09-17T16:35:47;13.10;99.90
53876;DHT22;39789;53.216;5.624;2022-09-17T16:38:13;13.00;99.90
53876;DHT22;39789;53.216;5.624;2022-09-17T16:40:43;12.90;99.90
53876;DHT22;39789;53.216;5.624;2022-09-17T16:43:09;12.90;99.90
53876;DHT22;39789;53.216;5.624;2022-09-17T16:45:34;12.80;99.90
53876;DHT22;39789;53.216;5.624;2022-09-17T16:48:00;12.60;99.90
53876;DHT22;39789;53.216;5.624;2022-09-17T16:50:26;12.70;99.90
53876;DHT22;39789;53.216;5.624;2022-09-17T16:52:52;12.60;99.90
53876;DHT22;39789;53.216;5.624;2022-09-17T16:55:18;12.60;99.90
53876;DHT22;39789;53.216;5.624;2022-09-17T16:57:45;12.50;99.90
53876;DHT22;39789;53.216;5.624;2022-09-17T17:00:13;12.50;99.90
53876;DHT22;39789;53.216;5.624;2022-09-17T17:02:42;12.50;99.90
53876;DHT22;39789;53.216;5.624;2022-09-17T17:05:08;12.50;99.90
53876;DHT22;39789;53.216;5.624;2022-09-17T17:07:35;12.50;99.90
53876;DHT22;39789;53.216;5.624;2022-09-17T17:10:00;12.50;99.90
53876;DHT22;39789;53.216;5.624;2022-09-17T17:12:26;12.50;99.90
53876;DHT22;39789;53.216;5.624;2022-09-17T17:14:52;12.40;99.90
53876;DHT22;39789;53.216;5.624;2022-09-17T17:17:19;12.40;99.90
53876;DHT22;39789;53.216;5.624;2022-09-17T17:19:45;13.50;99.90
53876;DHT22;39789;53.216;5.624;2022-09-17T17:22:12;12.40;99.90
53876;DHT22;39789;53.216;5.624;2022-09-17T17:24:37;12.40;99.90
53876;DHT22;39789;53.216;5.624;2022-09-17T17:27:03;12.30;99.90
53876;DHT22;39789;53.216;5.624;2022-09-17T17:29:29;12.10;99.90
53876;DHT22;39789;53.216;5.624;2022-09-17T17:31:55;11.90;99.90
53876;DHT22;39789;53.216;5.624;2022-09-17T17:34:20;11.60;99.90
53876;DHT22;39789;53.216;5.624;2022-09-17T17:36:49;11.40;99.90
53876;DHT22;39789;53.216;5.624;2022-09-17T17:39:15;11.30;99.90
53876;DHT22;39789;53.216;5.624;2022-09-17T17:41:41;11.30;99.90
53876;DHT22;39789;53.216;5.624;2022-09-17T17:44:08;11.30;99.90
53876;DHT22;39789;53.216;5.624;2022-09-17T17:46:36;11.30;99.90
53876;DHT22;39789;53.216;5.624;2022-09-17T17:49:01;11.30;99.90
53876;DHT22;39789;53.216;5.624;2022-09-17T17:51:27;11.40;99.90
53876;DHT22;39789;53.216;5.624;2022-09-17T17:53:53;11.40;99.90
53876;DHT22;39789;53.216;5.624;2022-09-17T17:56:18;11.40;99.90
53876;DHT22;39789;53.216;5.624;2022-09-17T17:58:44;11.50;99.90
53876;DHT22;39789;53.216;5.624;2022-09-17T18:01:14;11.60;99.90
53876;DHT22;39789;53.216;5.624;2022-09-17T18:03:40;11.70;99.90
53876;DHT22;39789;53.216;5.624;2022-09-17T18:06:06;11.60;99.90
53876;DHT22;39789;53.216;5.624;2022-09-17T18:08:35;11.50;99.90
53876;DHT22;39789;53.216;5.624;2022-09-17T18:11:01;11.40;99.90
53876;DHT22;39789;53.216;5.624;2022-09-17T18:13:28;11.20;99.90
53876;DHT22;39789;53.216;5.624;2022-09-17T18:15:59;11.10;99.90
53876;DHT22;39789;53.216;5.624;2022-09-17T18:18:30;11.10;99.90
53876;DHT22;39789;53.216;5.624;2022-09-17T18:21:03;11.10;99.90
53876;DHT22;39789;53.216;5.624;2022-09-17T18:23:32;11.10;99.90
53876;DHT22;39789;53.216;5.624;2022-09-17T18:25:59;11.10;99.90
53876;DHT22;39789;53.216;5.624;2022-09-17T18:28:26;11.20;99.90
53876;DHT22;39789;53.216;5.624;2022-09-17T18:30:52;11.20;99.90
53876;DHT22;39789;53.216;5.624;2022-09-17T18:33:19;11.20;99.90
53876;DHT22;39789;53.216;5.624;2022-09-17T18:35:46;11.20;99.90
53876;DHT22;39789;53.216;5.624;2022-09-17T18:38:12;10.90;99.90
53876;DHT22;39789;53.216;5.624;2022-09-17T18:40:37;11.20;99.90
53876;DHT22;39789;53.216;5.624;2022-09-17T18:43:03;11.20;99.90
53876;DHT22;39789;53.216;5.624;2022-09-17T18:45:28;12.00;99.90
53876;DHT22;39789;53.216;5.624;2022-09-17T18:47:54;11.20;99.90
53876;DHT22;39789;53.216;5.624;2022-09-17T18:50:20;11.30;99.90
53876;DHT22;39789;53.216;5.624;2022-09-17T18:52:46;11.30;99.90
53876;DHT22;39789;53.216;5.624;2022-09-17T18:55:11;11.30;99.90
53876;DHT22;39789;53.216;5.624;2022-09-17T18:57:37;11.40;99.90
53876;DHT22;39789;53.216;5.624;2022-09-17T19:00:03;11.40;99.90
53876;DHT22;39789;53.216;5.624;2022-09-17T19:02:32;11.40;99.90